sensor_id;sensor_type;location;lat;lon;timestamp;P1;durP1;ratioP1;P2;durP2;ratioP2
23376;SDS011;14353;46.070;13.222;2023-01-31T00:01:06;20.50;;;14.75;;
23376;SDS011;14353;46.070;13.222;2023-01-31T00:03:53;19.65;;;15.05;;
23376;SDS011;14353;46.070;13.222;2023-01-31T00:06:42;17.92;;;14.27;;
23376;SDS011;14353;46.070;13.222;2023-01-31T00:09:08;19.35;;;14.85;;
23376;SDS011;14353;46.070;13.222;2023-01-31T00:11:35;19.80;;;14.90;;
23376;SDS011;14353;46.070;13.222;2023-01-31T00:14:02;17.75;;;14.77;;
23376;SDS011;14353;46.070;13.222;2023-01-31T00:16:29;18.15;;;14.20;;
23376;SDS011;14353;46.070;13.222;2023-01-31T00:18:54;17.95;;;13.95;;
23376;SDS011;14353;46.070;13.222;2023-01-31T00:21:21;17.85;;;14.95;;
23376;SDS011;14353;46.070;13.222;2023-01-31T00:23:49;17.58;;;14.52;;
23376;SDS011;14353;46.070;13.222;2023-01-31T00:26:17;18.10;;;14.45;;
23376;SDS011;14353;46.070;13.222;2023-01-31T00:28:48;17.63;;;14.63;;
23376;SDS011;14353;46.070;13.222;2023-01-31T00:31:15;18.17;;;14.50;;
23376;SDS011;14353;46.070;13.222;2023-01-31T00:33:43;16.73;;;14.40;;
23376;SDS011;14353;46.070;13.222;2023-01-31T00:36:17;16.55;;;14.23;;
23376;SDS011;14353;46.070;13.222;2023-01-31T00:38:51;16.40;;;14.25;;
23376;SDS011;14353;46.070;13.222;2023-01-31T00:41:19;17.45;;;13.88;;
23376;SDS011;14353;46.070;13.222;2023-01-31T00:43:46;16.77;;;13.50;;
23376;SDS011;14353;46.070;13.222;2023-01-31T00:46:12;17.40;;;14.00;;
23376;SDS011;14353;46.070;13.222;2023-01-31T00:48:38;17.55;;;13.52;;
23376;SDS011;14353;46.070;13.222;2023-01-31T00:51:03;17.70;;;13.85;;
23376;SDS011;14353;46.070;13.222;2023-01-31T00:53:29;17.08;;;13.73;;
23376;SDS011;14353;46.070;13.222;2023-01-31T00:56:00;16.02;;;13.45;;
23376;SDS011;14353;46.070;13.222;2023-01-31T00:58:29;17.70;;;14.40;;
23376;SDS011;14353;46.070;13.222;2023-01-31T01:00:54;17.17;;;13.73;;
23376;SDS011;14353;46.070;13.222;2023-01-31T01:03:20;17.17;;;14.15;;
23376;SDS011;14353;46.070;13.222;2023-01-31T01:05:46;16.30;;;13.18;;
23376;SDS011;14353;46.070;13.222;2023-01-31T01:08:11;17.67;;;13.98;;
23376;SDS011;14353;46.070;13.222;2023-01-31T01:10:37;17.65;;;13.63;;
23376;SDS011;14353;46.070;13.222;2023-01-31T01:13:03;16.40;;;13.55;;
23376;SDS011;14353;46.070;13.222;2023-01-31T01:15:32;17.95;;;14.45;;
23376;SDS011;14353;46.070;13.222;2023-01-31T01:18:01;17.13;;;14.07;;
23376;SDS011;14353;46.070;13.222;2023-01-31T01:20:26;15.32;;;12.60;;
23376;SDS011;14353;46.070;13.222;2023-01-31T01:22:52;17.25;;;13.65;;
23376;SDS011;14353;46.070;13.222;2023-01-31T01:25:19;16.25;;;13.57;;
23376;SDS011;14353;46.070;13.222;2023-01-31T01:27:44;16.95;;;13.90;;
23376;SDS011;14353;46.070;13.222;2023-01-31T01:30:10;16.00;;;13.43;;
23376;SDS011;14353;46.070;13.222;2023-01-31T01:32:36;16.55;;;13.38;;
23376;SDS011;14353;46.070;13.222;2023-01-31T01:35:02;16.13;;;13.35;;
23376;SDS011;14353;46.070;13.222;2023-01-31T01:37:28;16.85;;;13.85;;
23376;SDS011;14353;46.070;13.222;2023-01-31T01:39:54;15.55;;;13.18;;
23376;SDS011;14353;46.070;13.222;2023-01-31T01:42:21;17.52;;;13.40;;
23376;SDS011;14353;46.070;13.222;2023-01-31T01:44:49;15.27;;;12.95;;
23376;SDS011;14353;46.070;13.222;2023-01-31T01:49:50;16.98;;;13.75;;
23376;SDS011;14353;46.070;13.222;2023-01-31T01:52:27;14.35;;;12.77;;
23376;SDS011;14353;46.070;13.222;2023-01-31T01:55:02;15.63;;;13.38;;
23376;SDS011;14353;46.070;13.222;2023-01-31T01:57:34;16.67;;;13.65;;
23376;SDS011;14353;46.070;13.222;2023-01-31T02:00:09;15.77;;;13.32;;
23376;SDS011;14353;46.070;13.222;2023-01-31T02:02:39;16.73;;;13.98;;
23376;SDS011;14353;46.070;13.222;2023-01-31T02:05:06;16.35;;;13.10;;
23376;SDS011;14353;46.070;13.222;2023-01-31T02:07:33;14.77;;;12.55;;
23376;SDS011;14353;46.070;13.222;2023-01-31T02:13:04;18.25;;;13.38;;
23376;SDS011;14353;46.070;13.222;2023-01-31T02:15:30;16.02;;;13.30;;
23376;SDS011;14353;46.070;13.222;2023-01-31T02:17:58;15.50;;;12.70;;
23376;SDS011;14353;46.070;13.222;2023-01-31T02:20:26;15.40;;;12.88;;
23376;SDS011;14353;46.070;13.222;2023-01-31T02:26:08;16.83;;;13.10;;
23376;SDS011;14353;46.070;13.222;2023-01-31T02:37:51;14.95;;;12.63;;
23376;SDS011;14353;46.070;13.222;2023-01-31T02:46:19;15.60;;;12.55;;
23376;SDS011;14353;46.070;13.222;2023-01-31T02:51:58;15.05;;;12.23;;
23376;SDS011;14353;46.070;13.222;2023-01-31T02:54:54;15.60;;;12.27;;
23376;SDS011;14353;46.070;13.222;2023-01-31T02:57:50;16.27;;;12.88;;
23376;SDS011;14353;46.070;13.222;2023-01-31T03:00:18;16.08;;;12.40;;
23376;SDS011;14353;46.070;13.222;2023-01-31T03:02:45;14.73;;;11.90;;
23376;SDS011;14353;46.070;13.222;2023-01-31T03:05:14;15.52;;;12.50;;
23376;SDS011;14353;46.070;13.222;2023-01-31T03:07:41;15.10;;;12.43;;
23376;SDS011;14353;46.070;13.222;2023-01-31T03:10:15;14.30;;;12.15;;
23376;SDS011;14353;46.070;13.222;2023-01-31T03:13:01;14.10;;;12.07;;
23376;SDS011;14353;46.070;13.222;2023-01-31T03:15:47;14.52;;;12.05;;
23376;SDS011;14353;46.070;13.222;2023-01-31T03:22:00;14.02;;;11.88;;
23376;SDS011;14353;46.070;13.222;2023-01-31T03:24:27;15.55;;;13.07;;
23376;SDS011;14353;46.070;13.222;2023-01-31T03:26:54;14.93;;;12.10;;
23376;SDS011;14353;46.070;13.222;2023-01-31T03:29:22;14.93;;;12.07;;
23376;SDS011;14353;46.070;13.222;2023-01-31T03:32:03;13.38;;;11.38;;
23376;SDS011;14353;46.070;13.222;2023-01-31T03:34:35;15.73;;;12.13;;
23376;SDS011;14353;46.070;13.222;2023-01-31T03:42:13;14.35;;;11.43;;
23376;SDS011;14353;46.070;13.222;2023-01-31T03:44:52;15.27;;;12.13;;
23376;SDS011;14353;46.070;13.222;2023-01-31T03:47:35;13.35;;;11.52;;
23376;SDS011;14353;46.070;13.222;2023-01-31T03:50:04;14.45;;;11.93;;
23376;SDS011;14353;46.070;13.222;2023-01-31T03:52:34;15.48;;;11.73;;
23376;SDS011;14353;46.070;13.222;2023-01-31T03:55:14;15.52;;;12.40;;
23376;SDS011;14353;46.070;13.222;2023-01-31T03:57:43;14.57;;;12.43;;
23376;SDS011;14353;46.070;13.222;2023-01-31T04:00:14;15.13;;;11.57;;
23376;SDS011;14353;46.070;13.222;2023-01-31T04:02:43;13.50;;;11.65;;
23376;SDS011;14353;46.070;13.222;2023-01-31T04:05:16;14.45;;;11.65;;
23376;SDS011;14353;46.070;13.222;2023-01-31T04:07:46;13.57;;;11.68;;
23376;SDS011;14353;46.070;13.222;2023-01-31T04:10:14;15.05;;;12.27;;
23376;SDS011;14353;46.070;13.222;2023-01-31T04:12:41;14.57;;;12.38;;
23376;SDS011;14353;46.070;13.222;2023-01-31T04:15:07;14.52;;;11.93;;
23376;SDS011;14353;46.070;13.222;2023-01-31T04:17:33;12.68;;;10.88;;
23376;SDS011;14353;46.070;13.222;2023-01-31T04:19:59;15.60;;;12.20;;
23376;SDS011;14353;46.070;13.222;2023-01-31T04:22:25;13.43;;;11.85;;
23376;SDS011;14353;46.070;13.222;2023-01-31T04:24:51;13.93;;;11.30;;
23376;SDS011;14353;46.070;13.222;2023-01-31T04:27:17;13.45;;;11.48;;
23376;SDS011;14353;46.070;13.222;2023-01-31T04:29:43;13.60;;;11.25;;
23376;SDS011;14353;46.070;13.222;2023-01-31T04:32:08;13.75;;;11.68;;
23376;SDS011;14353;46.070;13.222;2023-01-31T04:34:34;13.75;;;11.85;;
23376;SDS011;14353;46.070;13.222;2023-01-31T04:37:00;13.82;;;11.27;;
23376;SDS011;14353;46.070;13.222;2023-01-31T04:39:25;12.00;;;10.68;;
23376;SDS011;14353;46.070;13.222;2023-01-31T04:41:51;12.43;;;11.10;;
23376;SDS011;14353;46.070;13.222;2023-01-31T04:44:17;14.35;;;11.50;;
23376;SDS011;14353;46.070;13.222;2023-01-31T04:46:43;13.77;;;10.85;;
23376;SDS011;14353;46.070;13.222;2023-01-31T04:49:11;13.10;;;11.15;;
23376;SDS011;14353;46.070;13.222;2023-01-31T04:51:37;13.85;;;11.45;;
23376;SDS011;14353;46.070;13.222;2023-01-31T04:54:02;14.13;;;11.02;;
23376;SDS011;14353;46.070;13.222;2023-01-31T04:56:28;13.68;;;11.35;;
23376;SDS011;14353;46.070;13.222;2023-01-31T04:58:55;13.25;;;10.82;;
23376;SDS011;14353;46.070;13.222;2023-01-31T05:01:22;13.02;;;11.02;;
23376;SDS011;14353;46.070;13.222;2023-01-31T05:03:47;14.20;;;10.95;;
23376;SDS011;14353;46.070;13.222;2023-01-31T05:06:13;13.65;;;11.50;;
23376;SDS011;14353;46.070;13.222;2023-01-31T05:08:39;13.45;;;11.15;;
23376;SDS011;14353;46.070;13.222;2023-01-31T05:11:05;13.45;;;11.35;;
23376;SDS011;14353;46.070;13.222;2023-01-31T05:13:32;13.65;;;11.23;;
23376;SDS011;14353;46.070;13.222;2023-01-31T05:16:02;13.05;;;11.00;;
23376;SDS011;14353;46.070;13.222;2023-01-31T05:18:35;12.75;;;10.57;;
23376;SDS011;14353;46.070;13.222;2023-01-31T05:21:02;13.45;;;11.02;;
23376;SDS011;14353;46.070;13.222;2023-01-31T05:23:29;13.30;;;11.25;;
23376;SDS011;14353;46.070;13.222;2023-01-31T05:25:55;14.30;;;11.50;;
23376;SDS011;14353;46.070;13.222;2023-01-31T05:28:21;13.95;;;11.43;;
23376;SDS011;14353;46.070;13.222;2023-01-31T05:30:48;13.32;;;11.52;;
23376;SDS011;14353;46.070;13.222;2023-01-31T05:33:13;12.65;;;10.52;;
23376;SDS011;14353;46.070;13.222;2023-01-31T05:35:39;14.27;;;10.98;;
23376;SDS011;14353;46.070;13.222;2023-01-31T05:38:06;12.63;;;10.93;;
23376;SDS011;14353;46.070;13.222;2023-01-31T05:40:33;12.40;;;10.55;;
23376;SDS011;14353;46.070;13.222;2023-01-31T05:42:59;13.50;;;11.13;;
23376;SDS011;14353;46.070;13.222;2023-01-31T05:45:25;14.27;;;11.45;;
23376;SDS011;14353;46.070;13.222;2023-01-31T05:47:52;12.90;;;10.80;;
23376;SDS011;14353;46.070;13.222;2023-01-31T05:50:19;12.90;;;11.25;;
23376;SDS011;14353;46.070;13.222;2023-01-31T05:52:49;13.15;;;11.18;;
23376;SDS011;14353;46.070;13.222;2023-01-31T05:55:19;12.68;;;10.23;;
23376;SDS011;14353;46.070;13.222;2023-01-31T05:57:45;13.38;;;10.88;;
23376;SDS011;14353;46.070;13.222;2023-01-31T06:00:11;13.20;;;10.85;;
23376;SDS011;14353;46.070;13.222;2023-01-31T06:02:39;12.75;;;11.32;;
23376;SDS011;14353;46.070;13.222;2023-01-31T06:05:05;12.65;;;10.25;;
23376;SDS011;14353;46.070;13.222;2023-01-31T06:07:32;12.68;;;10.52;;
23376;SDS011;14353;46.070;13.222;2023-01-31T06:09:58;12.73;;;10.25;;
23376;SDS011;14353;46.070;13.222;2023-01-31T06:12:24;12.52;;;10.77;;
23376;SDS011;14353;46.070;13.222;2023-01-31T06:14:49;13.77;;;10.82;;
23376;SDS011;14353;46.070;13.222;2023-01-31T06:17:15;11.77;;;10.13;;
23376;SDS011;14353;46.070;13.222;2023-01-31T06:19:41;12.30;;;10.50;;
23376;SDS011;14353;46.070;13.222;2023-01-31T06:22:07;12.05;;;10.35;;
23376;SDS011;14353;46.070;13.222;2023-01-31T06:24:33;15.00;;;12.45;;
23376;SDS011;14353;46.070;13.222;2023-01-31T06:26:58;14.95;;;12.50;;
23376;SDS011;14353;46.070;13.222;2023-01-31T06:29:24;14.00;;;12.40;;
23376;SDS011;14353;46.070;13.222;2023-01-31T06:31:50;16.33;;;12.95;;
23376;SDS011;14353;46.070;13.222;2023-01-31T06:34:17;15.35;;;12.57;;
23376;SDS011;14353;46.070;13.222;2023-01-31T06:36:44;16.38;;;13.30;;
23376;SDS011;14353;46.070;13.222;2023-01-31T06:39:12;17.17;;;14.23;;
23376;SDS011;14353;46.070;13.222;2023-01-31T06:41:38;19.65;;;14.18;;
23376;SDS011;14353;46.070;13.222;2023-01-31T06:44:04;17.05;;;13.40;;
23376;SDS011;14353;46.070;13.222;2023-01-31T06:46:30;19.48;;;13.90;;
23376;SDS011;14353;46.070;13.222;2023-01-31T06:48:56;18.02;;;13.52;;
23376;SDS011;14353;46.070;13.222;2023-01-31T06:51:22;18.08;;;14.50;;
23376;SDS011;14353;46.070;13.222;2023-01-31T06:53:47;18.55;;;14.35;;
23376;SDS011;14353;46.070;13.222;2023-01-31T06:56:15;24.23;;;16.75;;
23376;SDS011;14353;46.070;13.222;2023-01-31T06:58:41;22.90;;;15.90;;
23376;SDS011;14353;46.070;13.222;2023-01-31T07:01:08;22.02;;;16.92;;
23376;SDS011;14353;46.070;13.222;2023-01-31T07:03:36;23.40;;;16.70;;
23376;SDS011;14353;46.070;13.222;2023-01-31T07:06:02;22.88;;;16.98;;
23376;SDS011;14353;46.070;13.222;2023-01-31T07:08:28;21.98;;;17.20;;
23376;SDS011;14353;46.070;13.222;2023-01-31T07:10:55;25.95;;;18.05;;
23376;SDS011;14353;46.070;13.222;2023-01-31T07:13:21;24.27;;;18.02;;
23376;SDS011;14353;46.070;13.222;2023-01-31T07:15:47;24.92;;;18.73;;
23376;SDS011;14353;46.070;13.222;2023-01-31T07:18:15;31.08;;;18.80;;
23376;SDS011;14353;46.070;13.222;2023-01-31T07:20:45;26.13;;;17.67;;
23376;SDS011;14353;46.070;13.222;2023-01-31T07:23:18;26.80;;;19.55;;
23376;SDS011;14353;46.070;13.222;2023-01-31T07:25:48;33.15;;;19.35;;
23376;SDS011;14353;46.070;13.222;2023-01-31T07:28:15;23.98;;;18.70;;
23376;SDS011;14353;46.070;13.222;2023-01-31T07:30:41;28.42;;;20.10;;
23376;SDS011;14353;46.070;13.222;2023-01-31T07:33:08;26.77;;;20.10;;
23376;SDS011;14353;46.070;13.222;2023-01-31T07:35:37;28.80;;;20.30;;
23376;SDS011;14353;46.070;13.222;2023-01-31T07:38:03;26.95;;;19.27;;
23376;SDS011;14353;46.070;13.222;2023-01-31T07:40:28;27.73;;;19.25;;
23376;SDS011;14353;46.070;13.222;2023-01-31T07:42:57;26.75;;;19.88;;
23376;SDS011;14353;46.070;13.222;2023-01-31T07:45:24;26.60;;;19.80;;
23376;SDS011;14353;46.070;13.222;2023-01-31T07:47:50;26.17;;;20.65;;
23376;SDS011;14353;46.070;13.222;2023-01-31T07:50:16;26.77;;;19.98;;
23376;SDS011;14353;46.070;13.222;2023-01-31T07:52:42;33.15;;;20.80;;
23376;SDS011;14353;46.070;13.222;2023-01-31T07:55:08;27.38;;;20.15;;
23376;SDS011;14353;46.070;13.222;2023-01-31T07:57:34;27.38;;;20.38;;
23376;SDS011;14353;46.070;13.222;2023-01-31T08:00:00;25.88;;;19.63;;
23376;SDS011;14353;46.070;13.222;2023-01-31T08:02:26;25.27;;;19.42;;
23376;SDS011;14353;46.070;13.222;2023-01-31T08:07:35;25.95;;;19.17;;
23376;SDS011;14353;46.070;13.222;2023-01-31T08:10:02;27.70;;;19.30;;
23376;SDS011;14353;46.070;13.222;2023-01-31T08:12:29;30.50;;;19.23;;
23376;SDS011;14353;46.070;13.222;2023-01-31T08:14:57;29.52;;;18.48;;
23376;SDS011;14353;46.070;13.222;2023-01-31T08:17:23;25.85;;;18.85;;
23376;SDS011;14353;46.070;13.222;2023-01-31T08:19:49;26.60;;;19.35;;
23376;SDS011;14353;46.070;13.222;2023-01-31T08:22:15;24.05;;;17.20;;
23376;SDS011;14353;46.070;13.222;2023-01-31T08:24:40;26.58;;;17.35;;
23376;SDS011;14353;46.070;13.222;2023-01-31T08:27:06;24.73;;;17.63;;
23376;SDS011;14353;46.070;13.222;2023-01-31T08:29:32;22.25;;;16.92;;
23376;SDS011;14353;46.070;13.222;2023-01-31T08:31:58;25.65;;;17.27;;
23376;SDS011;14353;46.070;13.222;2023-01-31T08:34:23;26.20;;;16.90;;
23376;SDS011;14353;46.070;13.222;2023-01-31T08:36:52;25.08;;;17.77;;
23376;SDS011;14353;46.070;13.222;2023-01-31T08:39:17;28.75;;;17.00;;
23376;SDS011;14353;46.070;13.222;2023-01-31T08:41:43;24.95;;;16.88;;
23376;SDS011;14353;46.070;13.222;2023-01-31T08:44:10;32.25;;;16.20;;
23376;SDS011;14353;46.070;13.222;2023-01-31T08:46:36;26.50;;;16.90;;
23376;SDS011;14353;46.070;13.222;2023-01-31T08:49:03;28.85;;;16.75;;
23376;SDS011;14353;46.070;13.222;2023-01-31T08:51:31;27.05;;;16.70;;
23376;SDS011;14353;46.070;13.222;2023-01-31T08:53:57;30.80;;;16.50;;
23376;SDS011;14353;46.070;13.222;2023-01-31T08:56:23;28.48;;;16.23;;
23376;SDS011;14353;46.070;13.222;2023-01-31T08:58:50;24.88;;;14.95;;
23376;SDS011;14353;46.070;13.222;2023-01-31T09:01:17;29.83;;;16.05;;
23376;SDS011;14353;46.070;13.222;2023-01-31T09:03:44;26.00;;;16.00;;
23376;SDS011;14353;46.070;13.222;2023-01-31T09:06:15;24.80;;;15.07;;
23376;SDS011;14353;46.070;13.222;2023-01-31T09:08:44;27.00;;;15.15;;
23376;SDS011;14353;46.070;13.222;2023-01-31T09:11:12;28.60;;;15.60;;
23376;SDS011;14353;46.070;13.222;2023-01-31T09:13:43;27.75;;;14.80;;
23376;SDS011;14353;46.070;13.222;2023-01-31T09:16:11;22.20;;;15.35;;
23376;SDS011;14353;46.070;13.222;2023-01-31T09:18:38;31.02;;;15.60;;
23376;SDS011;14353;46.070;13.222;2023-01-31T09:21:05;23.60;;;14.90;;
23376;SDS011;14353;46.070;13.222;2023-01-31T09:23:33;27.52;;;15.30;;
23376;SDS011;14353;46.070;13.222;2023-01-31T09:25:59;25.05;;;14.95;;
23376;SDS011;14353;46.070;13.222;2023-01-31T09:28:25;22.40;;;14.50;;
23376;SDS011;14353;46.070;13.222;2023-01-31T09:30:51;24.05;;;14.63;;
23376;SDS011;14353;46.070;13.222;2023-01-31T09:33:21;24.58;;;14.38;;
23376;SDS011;14353;46.070;13.222;2023-01-31T09:35:57;21.50;;;14.30;;
23376;SDS011;14353;46.070;13.222;2023-01-31T09:38:31;23.27;;;13.93;;
23376;SDS011;14353;46.070;13.222;2023-01-31T09:40:57;21.35;;;13.93;;
23376;SDS011;14353;46.070;13.222;2023-01-31T09:43:27;22.05;;;13.95;;
23376;SDS011;14353;46.070;13.222;2023-01-31T09:46:00;23.10;;;14.65;;
23376;SDS011;14353;46.070;13.222;2023-01-31T09:48:30;23.25;;;13.90;;
23376;SDS011;14353;46.070;13.222;2023-01-31T09:50:59;19.77;;;14.25;;
23376;SDS011;14353;46.070;13.222;2023-01-31T09:53:28;26.10;;;14.50;;
23376;SDS011;14353;46.070;13.222;2023-01-31T09:58:48;20.83;;;13.18;;
23376;SDS011;14353;46.070;13.222;2023-01-31T10:01:23;18.52;;;13.25;;
23376;SDS011;14353;46.070;13.222;2023-01-31T10:09:01;24.05;;;15.60;;
23376;SDS011;14353;46.070;13.222;2023-01-31T10:23:10;24.55;;;15.48;;
23376;SDS011;14353;46.070;13.222;2023-01-31T10:25:33;28.23;;;14.93;;
23376;SDS011;14353;46.070;13.222;2023-01-31T10:28:15;27.00;;;14.07;;
23376;SDS011;14353;46.070;13.222;2023-01-31T10:39:43;27.85;;;15.23;;
23376;SDS011;14353;46.070;13.222;2023-01-31T10:44:40;32.00;;;15.20;;
23376;SDS011;14353;46.070;13.222;2023-01-31T10:47:20;29.98;;;15.20;;
23376;SDS011;14353;46.070;13.222;2023-01-31T10:49:49;33.33;;;15.43;;
23376;SDS011;14353;46.070;13.222;2023-01-31T10:55:07;29.73;;;14.48;;
23376;SDS011;14353;46.070;13.222;2023-01-31T10:57:48;30.98;;;14.52;;
23376;SDS011;14353;46.070;13.222;2023-01-31T11:00:18;27.63;;;14.20;;
23376;SDS011;14353;46.070;13.222;2023-01-31T11:02:47;25.17;;;14.00;;
23376;SDS011;14353;46.070;13.222;2023-01-31T11:05:17;30.63;;;13.55;;
23376;SDS011;14353;46.070;13.222;2023-01-31T11:07:46;31.40;;;14.18;;
23376;SDS011;14353;46.070;13.222;2023-01-31T11:10:20;31.23;;;15.02;;
23376;SDS011;14353;46.070;13.222;2023-01-31T11:12:53;28.77;;;14.82;;
23376;SDS011;14353;46.070;13.222;2023-01-31T11:15:25;29.73;;;15.38;;
23376;SDS011;14353;46.070;13.222;2023-01-31T11:17:55;31.92;;;14.82;;
23376;SDS011;14353;46.070;13.222;2023-01-31T11:20:28;28.27;;;14.77;;
23376;SDS011;14353;46.070;13.222;2023-01-31T11:22:56;24.50;;;14.40;;
23376;SDS011;14353;46.070;13.222;2023-01-31T11:25:24;22.55;;;14.43;;
23376;SDS011;14353;46.070;13.222;2023-01-31T11:27:53;30.52;;;14.30;;
23376;SDS011;14353;46.070;13.222;2023-01-31T11:30:31;27.33;;;14.50;;
23376;SDS011;14353;46.070;13.222;2023-01-31T11:33:00;26.00;;;14.45;;
23376;SDS011;14353;46.070;13.222;2023-01-31T11:35:29;27.88;;;15.02;;
23376;SDS011;14353;46.070;13.222;2023-01-31T11:38:01;27.42;;;14.77;;
23376;SDS011;14353;46.070;13.222;2023-01-31T11:40:39;22.80;;;13.02;;
23376;SDS011;14353;46.070;13.222;2023-01-31T11:48:45;25.77;;;13.75;;
23376;SDS011;14353;46.070;13.222;2023-01-31T11:51:19;20.83;;;13.63;;
23376;SDS011;14353;46.070;13.222;2023-01-31T11:53:54;21.80;;;13.98;;
23376;SDS011;14353;46.070;13.222;2023-01-31T11:56:24;24.52;;;14.10;;
23376;SDS011;14353;46.070;13.222;2023-01-31T11:58:53;23.25;;;13.95;;
23376;SDS011;14353;46.070;13.222;2023-01-31T12:01:31;27.63;;;14.85;;
23376;SDS011;14353;46.070;13.222;2023-01-31T12:04:03;26.52;;;14.68;;
23376;SDS011;14353;46.070;13.222;2023-01-31T12:06:33;23.95;;;14.45;;
23376;SDS011;14353;46.070;13.222;2023-01-31T12:09:05;21.20;;;14.80;;
23376;SDS011;14353;46.070;13.222;2023-01-31T12:11:59;22.98;;;15.70;;
23376;SDS011;14353;46.070;13.222;2023-01-31T12:14:40;31.52;;;15.63;;
23376;SDS011;14353;46.070;13.222;2023-01-31T12:17:10;27.38;;;15.30;;
23376;SDS011;14353;46.070;13.222;2023-01-31T12:19:43;27.20;;;16.40;;
23376;SDS011;14353;46.070;13.222;2023-01-31T12:25:13;24.48;;;16.65;;
23376;SDS011;14353;46.070;13.222;2023-01-31T12:28:07;24.08;;;16.85;;
23376;SDS011;14353;46.070;13.222;2023-01-31T12:33:20;29.67;;;17.95;;
23376;SDS011;14353;46.070;13.222;2023-01-31T12:44:42;27.60;;;18.20;;
23376;SDS011;14353;46.070;13.222;2023-01-31T12:53:04;27.75;;;17.48;;
23376;SDS011;14353;46.070;13.222;2023-01-31T12:55:36;27.35;;;17.60;;
23376;SDS011;14353;46.070;13.222;2023-01-31T13:01:11;25.42;;;16.73;;
23376;SDS011;14353;46.070;13.222;2023-01-31T13:06:23;27.10;;;16.35;;
23376;SDS011;14353;46.070;13.222;2023-01-31T13:08:59;25.88;;;16.40;;
23376;SDS011;14353;46.070;13.222;2023-01-31T13:11:39;26.15;;;16.35;;
23376;SDS011;14353;46.070;13.222;2023-01-31T13:14:18;23.27;;;15.18;;
23376;SDS011;14353;46.070;13.222;2023-01-31T13:16:47;22.35;;;15.52;;
23376;SDS011;14353;46.070;13.222;2023-01-31T13:19:28;24.42;;;16.15;;
23376;SDS011;14353;46.070;13.222;2023-01-31T13:22:20;26.17;;;15.75;;
23376;SDS011;14353;46.070;13.222;2023-01-31T13:24:48;25.85;;;15.52;;
23376;SDS011;14353;46.070;13.222;2023-01-31T13:27:31;21.40;;;15.18;;
23376;SDS011;14353;46.070;13.222;2023-01-31T13:30:02;21.08;;;14.98;;
23376;SDS011;14353;46.070;13.222;2023-01-31T13:32:40;22.85;;;14.77;;
23376;SDS011;14353;46.070;13.222;2023-01-31T13:35:15;23.45;;;14.68;;
23376;SDS011;14353;46.070;13.222;2023-01-31T13:38:05;22.02;;;14.75;;
23376;SDS011;14353;46.070;13.222;2023-01-31T13:40:37;24.95;;;14.80;;
23376;SDS011;14353;46.070;13.222;2023-01-31T13:43:11;24.63;;;14.25;;
23376;SDS011;14353;46.070;13.222;2023-01-31T13:45:46;21.83;;;14.75;;
23376;SDS011;14353;46.070;13.222;2023-01-31T13:48:22;28.52;;;15.27;;
23376;SDS011;14353;46.070;13.222;2023-01-31T13:50:50;26.05;;;14.52;;
23376;SDS011;14353;46.070;13.222;2023-01-31T13:53:42;20.80;;;14.00;;
23376;SDS011;14353;46.070;13.222;2023-01-31T13:56:14;21.33;;;14.52;;
23376;SDS011;14353;46.070;13.222;2023-01-31T13:58:47;20.55;;;14.35;;
23376;SDS011;14353;46.070;13.222;2023-01-31T14:01:15;19.60;;;13.70;;
23376;SDS011;14353;46.070;13.222;2023-01-31T14:09:26;24.40;;;14.95;;
23376;SDS011;14353;46.070;13.222;2023-01-31T14:11:54;20.75;;;13.82;;
23376;SDS011;14353;46.070;13.222;2023-01-31T14:22:14;23.35;;;13.95;;
23376;SDS011;14353;46.070;13.222;2023-01-31T14:32:37;22.42;;;14.35;;
23376;SDS011;14353;46.070;13.222;2023-01-31T14:43:08;19.10;;;13.02;;
23376;SDS011;14353;46.070;13.222;2023-01-31T14:51:44;18.70;;;12.68;;
23376;SDS011;14353;46.070;13.222;2023-01-31T14:54:25;22.38;;;13.93;;
23376;SDS011;14353;46.070;13.222;2023-01-31T14:59:34;17.88;;;13.05;;
23376;SDS011;14353;46.070;13.222;2023-01-31T15:02:22;17.45;;;12.40;;
23376;SDS011;14353;46.070;13.222;2023-01-31T15:07:28;20.17;;;13.35;;
23376;SDS011;14353;46.070;13.222;2023-01-31T15:09:54;21.85;;;12.93;;
23376;SDS011;14353;46.070;13.222;2023-01-31T15:15:31;23.58;;;14.52;;
23376;SDS011;14353;46.070;13.222;2023-01-31T15:18:04;23.60;;;14.25;;
23376;SDS011;14353;46.070;13.222;2023-01-31T15:20:44;22.02;;;15.25;;
23376;SDS011;14353;46.070;13.222;2023-01-31T15:23:18;33.20;;;17.42;;
23376;SDS011;14353;46.070;13.222;2023-01-31T15:25:47;22.90;;;15.63;;
23376;SDS011;14353;46.070;13.222;2023-01-31T15:28:15;31.80;;;18.17;;
23376;SDS011;14353;46.070;13.222;2023-01-31T15:30:43;24.88;;;17.10;;
23376;SDS011;14353;46.070;13.222;2023-01-31T15:38:18;33.38;;;18.65;;
23376;SDS011;14353;46.070;13.222;2023-01-31T15:43:34;29.00;;;17.98;;
23376;SDS011;14353;46.070;13.222;2023-01-31T15:46:11;31.02;;;18.70;;
23376;SDS011;14353;46.070;13.222;2023-01-31T15:48:47;26.48;;;16.63;;
23376;SDS011;14353;46.070;13.222;2023-01-31T15:51:13;24.73;;;17.92;;
23376;SDS011;14353;46.070;13.222;2023-01-31T15:53:39;25.35;;;17.20;;
23376;SDS011;14353;46.070;13.222;2023-01-31T15:56:09;24.80;;;17.23;;
23376;SDS011;14353;46.070;13.222;2023-01-31T15:58:46;29.63;;;16.75;;
23376;SDS011;14353;46.070;13.222;2023-01-31T16:01:15;25.42;;;16.67;;
23376;SDS011;14353;46.070;13.222;2023-01-31T16:03:48;21.42;;;16.13;;
23376;SDS011;14353;46.070;13.222;2023-01-31T16:06:40;27.90;;;16.80;;
23376;SDS011;14353;46.070;13.222;2023-01-31T16:09:06;25.67;;;14.95;;
23376;SDS011;14353;46.070;13.222;2023-01-31T16:11:46;24.23;;;15.30;;
23376;SDS011;14353;46.070;13.222;2023-01-31T16:14:12;23.05;;;15.43;;
23376;SDS011;14353;46.070;13.222;2023-01-31T16:16:37;26.58;;;16.05;;
23376;SDS011;14353;46.070;13.222;2023-01-31T16:19:03;21.15;;;16.15;;
23376;SDS011;14353;46.070;13.222;2023-01-31T16:21:31;24.90;;;16.08;;
23376;SDS011;14353;46.070;13.222;2023-01-31T16:24:22;24.27;;;16.50;;
23376;SDS011;14353;46.070;13.222;2023-01-31T16:29:30;25.95;;;16.50;;
23376;SDS011;14353;46.070;13.222;2023-01-31T16:32:03;28.27;;;16.30;;
23376;SDS011;14353;46.070;13.222;2023-01-31T16:34:40;26.48;;;17.20;;
23376;SDS011;14353;46.070;13.222;2023-01-31T16:37:06;27.55;;;17.58;;
23376;SDS011;14353;46.070;13.222;2023-01-31T16:42:07;23.50;;;17.17;;
23376;SDS011;14353;46.070;13.222;2023-01-31T16:44:45;23.92;;;17.52;;
23376;SDS011;14353;46.070;13.222;2023-01-31T16:52:41;22.48;;;15.68;;
23376;SDS011;14353;46.070;13.222;2023-01-31T16:55:18;22.05;;;15.45;;
23376;SDS011;14353;46.070;13.222;2023-01-31T16:57:46;20.45;;;15.18;;
23376;SDS011;14353;46.070;13.222;2023-01-31T17:02:51;18.88;;;14.70;;
23376;SDS011;14353;46.070;13.222;2023-01-31T17:05:26;22.67;;;14.70;;
23376;SDS011;14353;46.070;13.222;2023-01-31T17:08:10;20.42;;;14.95;;
23376;SDS011;14353;46.070;13.222;2023-01-31T17:10:40;20.15;;;14.43;;
23376;SDS011;14353;46.070;13.222;2023-01-31T17:13:10;18.23;;;14.15;;